Terminal Aerodrome Forecast
Issued by NWS Duluth, MN

Home | Current Version | Previous Version | Text Only | Print | Product List | Glossary On
Versions: 1 2 3 4 5 6 7 8 9 10 11 12 13 14 15 16 17 18
000
FTUS43 KDLH 260446 AAC
TAFDLH
TAF AMD
KDLH 260446Z 2605/2624 23003KT P6SM BKN018 BKN070
      TEMPO 2605/2606 4SM -TSRA BR SCT015 BKN035CB
     FM260600 23005KT P6SM -SHRA BKN035 OVC050
     FM260800 29006KT 4SM BR BKN018
     FM261300 31006KT P6SM SCT080=

USA.gov is the U.S. government's official web portal to all federal, state and local government web resources and services.